sensor_id;sensor_type;location;lat;lon;timestamp;P1;durP1;ratioP1;P2;durP2;ratioP2
74616;SDS011;63123;50.906;4.198;2023-04-06T00:01:01;8.63;;;7.35;;
74616;SDS011;63123;50.906;4.198;2023-04-06T00:03:26;7.13;;;6.53;;
74616;SDS011;63123;50.906;4.198;2023-04-06T00:05:52;6.63;;;5.95;;
74616;SDS011;63123;50.906;4.198;2023-04-06T00:08:18;8.43;;;7.63;;
74616;SDS011;63123;50.906;4.198;2023-04-06T00:10:43;7.25;;;6.55;;
74616;SDS011;63123;50.906;4.198;2023-04-06T00:13:09;7.10;;;6.40;;
74616;SDS011;63123;50.906;4.198;2023-04-06T00:15:35;7.63;;;6.28;;
74616;SDS011;63123;50.906;4.198;2023-04-06T00:18:01;7.15;;;6.47;;
74616;SDS011;63123;50.906;4.198;2023-04-06T00:20:27;7.28;;;5.90;;
74616;SDS011;63123;50.906;4.198;2023-04-06T00:22:53;6.63;;;5.88;;
74616;SDS011;63123;50.906;4.198;2023-04-06T00:25:19;7.38;;;6.68;;
74616;SDS011;63123;50.906;4.198;2023-04-06T00:27:45;7.68;;;6.80;;
74616;SDS011;63123;50.906;4.198;2023-04-06T00:30:10;6.43;;;5.75;;
74616;SDS011;63123;50.906;4.198;2023-04-06T00:32:36;6.95;;;6.30;;
74616;SDS011;63123;50.906;4.198;2023-04-06T00:35:02;7.75;;;6.93;;
74616;SDS011;63123;50.906;4.198;2023-04-06T00:37:29;6.60;;;5.55;;
74616;SDS011;63123;50.906;4.198;2023-04-06T00:39:54;5.57;;;5.05;;
74616;SDS011;63123;50.906;4.198;2023-04-06T00:42:20;7.07;;;6.38;;
74616;SDS011;63123;50.906;4.198;2023-04-06T00:44:51;7.80;;;7.05;;
74616;SDS011;63123;50.906;4.198;2023-04-06T00:47:22;7.72;;;7.03;;
74616;SDS011;63123;50.906;4.198;2023-04-06T00:49:50;7.05;;;6.28;;
74616;SDS011;63123;50.906;4.198;2023-04-06T00:52:16;7.25;;;6.55;;
74616;SDS011;63123;50.906;4.198;2023-04-06T00:54:42;6.20;;;5.70;;
74616;SDS011;63123;50.906;4.198;2023-04-06T00:57:08;7.00;;;6.32;;
74616;SDS011;63123;50.906;4.198;2023-04-06T00:59:35;6.50;;;5.90;;
74616;SDS011;63123;50.906;4.198;2023-04-06T01:02:00;6.80;;;6.10;;
74616;SDS011;63123;50.906;4.198;2023-04-06T01:04:26;6.43;;;5.75;;
74616;SDS011;63123;50.906;4.198;2023-04-06T01:06:52;5.63;;;5.00;;
74616;SDS011;63123;50.906;4.198;2023-04-06T01:09:18;6.03;;;5.50;;
74616;SDS011;63123;50.906;4.198;2023-04-06T01:11:43;7.57;;;6.72;;
74616;SDS011;63123;50.906;4.198;2023-04-06T01:14:09;6.22;;;5.63;;
74616;SDS011;63123;50.906;4.198;2023-04-06T01:16:35;5.85;;;5.25;;
74616;SDS011;63123;50.906;4.198;2023-04-06T01:19:06;7.13;;;6.43;;
74616;SDS011;63123;50.906;4.198;2023-04-06T01:21:34;6.85;;;5.57;;
74616;SDS011;63123;50.906;4.198;2023-04-06T01:24:00;7.40;;;6.70;;
74616;SDS011;63123;50.906;4.198;2023-04-06T01:26:26;6.90;;;6.13;;
74616;SDS011;63123;50.906;4.198;2023-04-06T01:28:54;6.38;;;5.78;;
74616;SDS011;63123;50.906;4.198;2023-04-06T01:31:20;7.22;;;6.60;;
74616;SDS011;63123;50.906;4.198;2023-04-06T01:33:46;6.88;;;6.18;;
74616;SDS011;63123;50.906;4.198;2023-04-06T01:36:12;7.47;;;6.78;;
74616;SDS011;63123;50.906;4.198;2023-04-06T01:38:37;6.35;;;5.75;;
74616;SDS011;63123;50.906;4.198;2023-04-06T01:41:03;6.68;;;5.50;;
74616;SDS011;63123;50.906;4.198;2023-04-06T01:43:29;6.80;;;6.20;;
74616;SDS011;63123;50.906;4.198;2023-04-06T01:45:55;7.00;;;6.32;;
74616;SDS011;63123;50.906;4.198;2023-04-06T01:48:21;6.30;;;5.70;;
74616;SDS011;63123;50.906;4.198;2023-04-06T01:50:47;6.40;;;5.80;;
74616;SDS011;63123;50.906;4.198;2023-04-06T01:53:13;6.20;;;5.55;;
74616;SDS011;63123;50.906;4.198;2023-04-06T01:55:39;5.75;;;5.25;;
74616;SDS011;63123;50.906;4.198;2023-04-06T01:58:05;7.18;;;6.53;;
74616;SDS011;63123;50.906;4.198;2023-04-06T02:00:30;6.72;;;6.03;;
74616;SDS011;63123;50.906;4.198;2023-04-06T02:02:56;7.97;;;7.20;;
74616;SDS011;63123;50.906;4.198;2023-04-06T02:05:21;6.97;;;6.38;;
74616;SDS011;63123;50.906;4.198;2023-04-06T02:07:47;7.20;;;6.47;;
74616;SDS011;63123;50.906;4.198;2023-04-06T02:10:14;6.65;;;6.07;;
74616;SDS011;63123;50.906;4.198;2023-04-06T02:12:40;5.80;;;5.30;;
74616;SDS011;63123;50.906;4.198;2023-04-06T02:15:06;8.20;;;7.22;;
74616;SDS011;63123;50.906;4.198;2023-04-06T02:17:32;7.40;;;6.70;;
74616;SDS011;63123;50.906;4.198;2023-04-06T02:19:57;7.22;;;6.53;;
74616;SDS011;63123;50.906;4.198;2023-04-06T02:22:23;6.35;;;5.68;;
74616;SDS011;63123;50.906;4.198;2023-04-06T02:24:49;6.32;;;5.75;;
74616;SDS011;63123;50.906;4.198;2023-04-06T02:27:14;5.72;;;5.22;;
74616;SDS011;63123;50.906;4.198;2023-04-06T02:29:40;6.72;;;6.03;;
74616;SDS011;63123;50.906;4.198;2023-04-06T02:32:06;6.43;;;5.82;;
74616;SDS011;63123;50.906;4.198;2023-04-06T02:34:31;6.45;;;5.85;;
74616;SDS011;63123;50.906;4.198;2023-04-06T02:36:57;7.43;;;6.80;;
74616;SDS011;63123;50.906;4.198;2023-04-06T02:39:22;6.55;;;5.95;;
74616;SDS011;63123;50.906;4.198;2023-04-06T02:41:48;6.55;;;5.95;;
74616;SDS011;63123;50.906;4.198;2023-04-06T02:44:14;6.68;;;6.07;;
74616;SDS011;63123;50.906;4.198;2023-04-06T02:46:40;7.75;;;7.05;;
74616;SDS011;63123;50.906;4.198;2023-04-06T02:49:05;6.18;;;5.68;;
74616;SDS011;63123;50.906;4.198;2023-04-06T02:51:31;6.03;;;5.53;;
74616;SDS011;63123;50.906;4.198;2023-04-06T02:53:57;5.47;;;4.97;;
74616;SDS011;63123;50.906;4.198;2023-04-06T02:56:23;6.30;;;5.70;;
74616;SDS011;63123;50.906;4.198;2023-04-06T02:58:49;6.25;;;5.65;;
74616;SDS011;63123;50.906;4.198;2023-04-06T03:01:15;6.65;;;6.05;;
74616;SDS011;63123;50.906;4.198;2023-04-06T03:03:41;7.10;;;6.50;;
74616;SDS011;63123;50.906;4.198;2023-04-06T03:06:06;5.97;;;5.47;;
74616;SDS011;63123;50.906;4.198;2023-04-06T03:08:32;6.90;;;6.28;;
74616;SDS011;63123;50.906;4.198;2023-04-06T03:10:58;6.00;;;5.40;;
74616;SDS011;63123;50.906;4.198;2023-04-06T03:13:23;6.78;;;5.90;;
74616;SDS011;63123;50.906;4.198;2023-04-06T03:15:49;7.43;;;6.72;;
74616;SDS011;63123;50.906;4.198;2023-04-06T03:18:15;6.20;;;5.70;;
74616;SDS011;63123;50.906;4.198;2023-04-06T03:20:40;6.15;;;5.65;;
74616;SDS011;63123;50.906;4.198;2023-04-06T03:23:06;6.80;;;6.20;;
74616;SDS011;63123;50.906;4.198;2023-04-06T03:25:32;6.40;;;5.80;;
74616;SDS011;63123;50.906;4.198;2023-04-06T03:27:58;6.20;;;5.60;;
74616;SDS011;63123;50.906;4.198;2023-04-06T03:30:23;6.72;;;6.13;;
74616;SDS011;63123;50.906;4.198;2023-04-06T03:32:50;6.28;;;5.72;;
74616;SDS011;63123;50.906;4.198;2023-04-06T03:35:16;5.90;;;5.40;;
74616;SDS011;63123;50.906;4.198;2023-04-06T03:37:42;5.75;;;5.25;;
74616;SDS011;63123;50.906;4.198;2023-04-06T03:40:07;6.47;;;5.88;;
74616;SDS011;63123;50.906;4.198;2023-04-06T03:42:33;6.47;;;5.88;;
74616;SDS011;63123;50.906;4.198;2023-04-06T03:44:59;5.95;;;5.43;;
74616;SDS011;63123;50.906;4.198;2023-04-06T03:47:25;6.22;;;5.60;;
74616;SDS011;63123;50.906;4.198;2023-04-06T03:49:50;6.00;;;5.50;;
74616;SDS011;63123;50.906;4.198;2023-04-06T03:52:16;6.20;;;5.63;;
74616;SDS011;63123;50.906;4.198;2023-04-06T03:54:41;7.20;;;6.60;;
74616;SDS011;63123;50.906;4.198;2023-04-06T03:57:07;6.32;;;5.82;;
74616;SDS011;63123;50.906;4.198;2023-04-06T03:59:33;7.18;;;6.55;;
74616;SDS011;63123;50.906;4.198;2023-04-06T04:01:58;6.07;;;5.57;;
74616;SDS011;63123;50.906;4.198;2023-04-06T04:04:24;7.32;;;6.68;;
74616;SDS011;63123;50.906;4.198;2023-04-06T04:06:50;5.93;;;5.45;;
74616;SDS011;63123;50.906;4.198;2023-04-06T04:09:15;6.47;;;5.88;;
74616;SDS011;63123;50.906;4.198;2023-04-06T04:11:41;7.10;;;6.50;;
74616;SDS011;63123;50.906;4.198;2023-04-06T04:14:07;6.95;;;6.30;;
74616;SDS011;63123;50.906;4.198;2023-04-06T04:16:32;6.28;;;5.68;;
74616;SDS011;63123;50.906;4.198;2023-04-06T04:18:58;6.45;;;5.95;;
74616;SDS011;63123;50.906;4.198;2023-04-06T04:21:24;6.07;;;5.57;;
74616;SDS011;63123;50.906;4.198;2023-04-06T04:23:50;6.07;;;5.57;;
74616;SDS011;63123;50.906;4.198;2023-04-06T04:26:17;6.07;;;5.57;;
74616;SDS011;63123;50.906;4.198;2023-04-06T04:28:43;7.15;;;6.55;;
74616;SDS011;63123;50.906;4.198;2023-04-06T04:31:08;6.22;;;5.72;;
74616;SDS011;63123;50.906;4.198;2023-04-06T04:33:34;5.82;;;5.32;;
74616;SDS011;63123;50.906;4.198;2023-04-06T04:36:00;5.63;;;5.13;;
74616;SDS011;63123;50.906;4.198;2023-04-06T04:38:25;6.65;;;6.05;;
74616;SDS011;63123;50.906;4.198;2023-04-06T04:40:51;5.05;;;4.65;;
74616;SDS011;63123;50.906;4.198;2023-04-06T04:43:17;6.55;;;5.95;;
74616;SDS011;63123;50.906;4.198;2023-04-06T04:45:43;6.07;;;5.53;;
74616;SDS011;63123;50.906;4.198;2023-04-06T04:48:09;6.15;;;5.53;;
74616;SDS011;63123;50.906;4.198;2023-04-06T04:50:35;5.30;;;4.80;;
74616;SDS011;63123;50.906;4.198;2023-04-06T04:53:00;5.93;;;5.43;;
74616;SDS011;63123;50.906;4.198;2023-04-06T04:55:26;6.63;;;6.03;;
74616;SDS011;63123;50.906;4.198;2023-04-06T04:57:52;5.80;;;5.20;;
74616;SDS011;63123;50.906;4.198;2023-04-06T05:00:18;6.35;;;5.75;;
74616;SDS011;63123;50.906;4.198;2023-04-06T05:02:44;5.95;;;5.35;;
74616;SDS011;63123;50.906;4.198;2023-04-06T05:05:10;8.70;;;7.90;;
74616;SDS011;63123;50.906;4.198;2023-04-06T05:07:36;6.82;;;6.22;;
74616;SDS011;63123;50.906;4.198;2023-04-06T05:10:01;6.50;;;5.90;;
74616;SDS011;63123;50.906;4.198;2023-04-06T05:12:27;7.70;;;7.03;;
74616;SDS011;63123;50.906;4.198;2023-04-06T05:14:53;7.05;;;6.45;;
74616;SDS011;63123;50.906;4.198;2023-04-06T05:17:19;6.00;;;5.50;;
74616;SDS011;63123;50.906;4.198;2023-04-06T05:19:45;8.02;;;7.32;;
74616;SDS011;63123;50.906;4.198;2023-04-06T05:22:11;8.25;;;7.45;;
74616;SDS011;63123;50.906;4.198;2023-04-06T05:24:39;7.20;;;6.55;;
74616;SDS011;63123;50.906;4.198;2023-04-06T05:27:05;7.25;;;6.65;;
74616;SDS011;63123;50.906;4.198;2023-04-06T05:29:31;7.30;;;6.70;;
74616;SDS011;63123;50.906;4.198;2023-04-06T05:31:57;6.05;;;5.45;;
74616;SDS011;63123;50.906;4.198;2023-04-06T05:34:22;6.45;;;5.95;;
74616;SDS011;63123;50.906;4.198;2023-04-06T05:36:48;7.47;;;6.88;;
74616;SDS011;63123;50.906;4.198;2023-04-06T05:39:14;7.18;;;6.47;;
74616;SDS011;63123;50.906;4.198;2023-04-06T05:41:39;6.63;;;5.65;;
74616;SDS011;63123;50.906;4.198;2023-04-06T05:44:05;7.47;;;6.78;;
74616;SDS011;63123;50.906;4.198;2023-04-06T05:46:31;8.50;;;7.78;;
74616;SDS011;63123;50.906;4.198;2023-04-06T05:48:56;7.53;;;6.93;;
74616;SDS011;63123;50.906;4.198;2023-04-06T05:51:22;6.30;;;5.70;;
74616;SDS011;63123;50.906;4.198;2023-04-06T05:53:48;7.22;;;6.63;;
74616;SDS011;63123;50.906;4.198;2023-04-06T05:56:13;7.25;;;6.20;;
74616;SDS011;63123;50.906;4.198;2023-04-06T05:58:39;7.32;;;6.72;;
74616;SDS011;63123;50.906;4.198;2023-04-06T06:01:05;7.18;;;6.57;;
74616;SDS011;63123;50.906;4.198;2023-04-06T06:03:30;7.32;;;6.57;;
74616;SDS011;63123;50.906;4.198;2023-04-06T06:06:00;6.38;;;5.78;;
74616;SDS011;63123;50.906;4.198;2023-04-06T06:08:26;7.70;;;6.90;;
74616;SDS011;63123;50.906;4.198;2023-04-06T06:10:52;6.95;;;6.38;;
74616;SDS011;63123;50.906;4.198;2023-04-06T06:13:18;6.78;;;6.28;;
74616;SDS011;63123;50.906;4.198;2023-04-06T06:15:44;7.50;;;6.80;;
74616;SDS011;63123;50.906;4.198;2023-04-06T06:18:09;6.40;;;5.80;;
74616;SDS011;63123;50.906;4.198;2023-04-06T06:20:35;7.70;;;7.07;;
74616;SDS011;63123;50.906;4.198;2023-04-06T06:23:01;6.55;;;5.85;;
74616;SDS011;63123;50.906;4.198;2023-04-06T06:25:26;6.10;;;5.60;;
74616;SDS011;63123;50.906;4.198;2023-04-06T06:27:52;6.95;;;6.30;;
74616;SDS011;63123;50.906;4.198;2023-04-06T06:30:18;7.80;;;7.10;;
74616;SDS011;63123;50.906;4.198;2023-04-06T06:32:43;7.45;;;6.75;;
74616;SDS011;63123;50.906;4.198;2023-04-06T06:35:09;7.47;;;6.78;;
74616;SDS011;63123;50.906;4.198;2023-04-06T06:37:35;8.18;;;7.38;;
74616;SDS011;63123;50.906;4.198;2023-04-06T06:40:00;6.13;;;5.60;;
74616;SDS011;63123;50.906;4.198;2023-04-06T06:42:26;6.10;;;5.60;;
74616;SDS011;63123;50.906;4.198;2023-04-06T06:44:52;6.10;;;5.50;;
74616;SDS011;63123;50.906;4.198;2023-04-06T06:47:17;6.35;;;5.75;;
74616;SDS011;63123;50.906;4.198;2023-04-06T06:49:43;7.10;;;6.40;;
74616;SDS011;63123;50.906;4.198;2023-04-06T06:52:09;6.65;;;5.78;;
74616;SDS011;63123;50.906;4.198;2023-04-06T06:54:34;5.70;;;5.20;;
74616;SDS011;63123;50.906;4.198;2023-04-06T06:57:00;5.75;;;5.25;;
74616;SDS011;63123;50.906;4.198;2023-04-06T06:59:26;6.28;;;5.65;;
74616;SDS011;63123;50.906;4.198;2023-04-06T07:01:51;5.88;;;5.38;;
74616;SDS011;63123;50.906;4.198;2023-04-06T07:04:17;5.75;;;5.22;;
74616;SDS011;63123;50.906;4.198;2023-04-06T07:06:43;6.43;;;5.85;;
74616;SDS011;63123;50.906;4.198;2023-04-06T07:09:08;6.93;;;6.28;;
74616;SDS011;63123;50.906;4.198;2023-04-06T07:11:34;5.65;;;5.13;;
74616;SDS011;63123;50.906;4.198;2023-04-06T07:14:00;6.50;;;5.90;;
74616;SDS011;63123;50.906;4.198;2023-04-06T07:16:25;6.40;;;5.80;;
74616;SDS011;63123;50.906;4.198;2023-04-06T07:18:51;5.53;;;5.03;;
74616;SDS011;63123;50.906;4.198;2023-04-06T07:21:16;5.88;;;5.32;;
74616;SDS011;63123;50.906;4.198;2023-04-06T07:23:42;5.70;;;5.10;;
74616;SDS011;63123;50.906;4.198;2023-04-06T07:26:08;5.97;;;5.38;;
74616;SDS011;63123;50.906;4.198;2023-04-06T07:28:34;5.88;;;5.38;;
74616;SDS011;63123;50.906;4.198;2023-04-06T07:31:00;4.97;;;4.57;;
74616;SDS011;63123;50.906;4.198;2023-04-06T07:33:25;5.47;;;4.97;;
74616;SDS011;63123;50.906;4.198;2023-04-06T07:35:54;5.10;;;4.60;;
74616;SDS011;63123;50.906;4.198;2023-04-06T07:38:21;5.18;;;4.72;;
74616;SDS011;63123;50.906;4.198;2023-04-06T07:40:47;4.50;;;4.10;;
74616;SDS011;63123;50.906;4.198;2023-04-06T07:43:12;5.30;;;4.90;;
74616;SDS011;63123;50.906;4.198;2023-04-06T07:45:38;5.57;;;5.07;;
74616;SDS011;63123;50.906;4.198;2023-04-06T07:48:04;5.40;;;4.00;;
74616;SDS011;63123;50.906;4.198;2023-04-06T07:50:29;4.70;;;4.30;;
74616;SDS011;63123;50.906;4.198;2023-04-06T07:52:55;5.65;;;5.15;;
74616;SDS011;63123;50.906;4.198;2023-04-06T07:55:21;4.88;;;4.38;;
74616;SDS011;63123;50.906;4.198;2023-04-06T07:57:46;4.20;;;3.80;;
74616;SDS011;63123;50.906;4.198;2023-04-06T08:00:12;4.70;;;4.30;;
74616;SDS011;63123;50.906;4.198;2023-04-06T08:02:38;4.63;;;4.22;;
74616;SDS011;63123;50.906;4.198;2023-04-06T08:05:04;4.65;;;4.25;;
74616;SDS011;63123;50.906;4.198;2023-04-06T08:07:30;4.32;;;4.00;;
74616;SDS011;63123;50.906;4.198;2023-04-06T08:09:56;4.32;;;3.92;;
74616;SDS011;63123;50.906;4.198;2023-04-06T08:12:22;5.10;;;3.97;;
74616;SDS011;63123;50.906;4.198;2023-04-06T08:14:48;4.38;;;3.97;;
74616;SDS011;63123;50.906;4.198;2023-04-06T08:17:13;4.03;;;3.67;;
74616;SDS011;63123;50.906;4.198;2023-04-06T08:19:39;4.05;;;3.65;;
74616;SDS011;63123;50.906;4.198;2023-04-06T08:22:08;4.28;;;3.88;;
74616;SDS011;63123;50.906;4.198;2023-04-06T08:24:34;4.30;;;3.90;;
74616;SDS011;63123;50.906;4.198;2023-04-06T08:26:59;4.68;;;3.97;;
74616;SDS011;63123;50.906;4.198;2023-04-06T08:29:25;4.88;;;3.83;;
74616;SDS011;63123;50.906;4.198;2023-04-06T08:31:51;4.72;;;3.90;;
74616;SDS011;63123;50.906;4.198;2023-04-06T08:34:16;3.97;;;3.55;;
74616;SDS011;63123;50.906;4.198;2023-04-06T08:36:42;3.88;;;3.42;;
74616;SDS011;63123;50.906;4.198;2023-04-06T08:39:08;3.63;;;3.33;;
74616;SDS011;63123;50.906;4.198;2023-04-06T08:41:33;4.20;;;3.72;;
74616;SDS011;63123;50.906;4.198;2023-04-06T08:44:01;3.90;;;3.50;;
74616;SDS011;63123;50.906;4.198;2023-04-06T08:46:30;4.78;;;4.28;;
74616;SDS011;63123;50.906;4.198;2023-04-06T08:49:05;4.45;;;4.00;;
74616;SDS011;63123;50.906;4.198;2023-04-06T08:51:32;3.55;;;3.25;;
74616;SDS011;63123;50.906;4.198;2023-04-06T08:53:59;4.68;;;3.60;;
74616;SDS011;63123;50.906;4.198;2023-04-06T08:56:25;3.70;;;3.40;;
74616;SDS011;63123;50.906;4.198;2023-04-06T08:58:53;3.45;;;3.15;;
74616;SDS011;63123;50.906;4.198;2023-04-06T09:01:26;3.53;;;3.10;;
74616;SDS011;63123;50.906;4.198;2023-04-06T09:03:59;3.70;;;3.40;;
74616;SDS011;63123;50.906;4.198;2023-04-06T09:06:26;3.80;;;3.45;;
74616;SDS011;63123;50.906;4.198;2023-04-06T09:08:52;3.05;;;2.75;;
74616;SDS011;63123;50.906;4.198;2023-04-06T09:11:18;3.47;;;3.17;;
74616;SDS011;63123;50.906;4.198;2023-04-06T09:13:47;3.50;;;3.20;;
74616;SDS011;63123;50.906;4.198;2023-04-06T09:16:17;3.85;;;3.45;;
74616;SDS011;63123;50.906;4.198;2023-04-06T09:18:43;3.58;;;3.17;;
74616;SDS011;63123;50.906;4.198;2023-04-06T09:21:09;4.00;;;3.10;;
74616;SDS011;63123;50.906;4.198;2023-04-06T09:23:36;3.47;;;3.15;;
74616;SDS011;63123;50.906;4.198;2023-04-06T09:26:06;3.17;;;2.92;;
74616;SDS011;63123;50.906;4.198;2023-04-06T09:28:46;3.10;;;2.80;;
74616;SDS011;63123;50.906;4.198;2023-04-06T09:31:22;3.58;;;2.88;;
74616;SDS011;63123;50.906;4.198;2023-04-06T09:33:48;2.90;;;2.60;;
74616;SDS011;63123;50.906;4.198;2023-04-06T09:36:14;3.50;;;3.20;;
74616;SDS011;63123;50.906;4.198;2023-04-06T09:38:55;3.40;;;3.10;;
74616;SDS011;63123;50.906;4.198;2023-04-06T09:41:26;3.63;;;3.33;;
74616;SDS011;63123;50.906;4.198;2023-04-06T09:44:12;4.20;;;3.47;;
74616;SDS011;63123;50.906;4.198;2023-04-06T09:46:39;3.30;;;3.08;;
74616;SDS011;63123;50.906;4.198;2023-04-06T09:49:06;3.20;;;2.90;;
74616;SDS011;63123;50.906;4.198;2023-04-06T09:51:37;3.42;;;3.13;;
74616;SDS011;63123;50.906;4.198;2023-04-06T09:54:04;3.22;;;2.92;;
74616;SDS011;63123;50.906;4.198;2023-04-06T09:56:33;3.30;;;2.90;;
74616;SDS011;63123;50.906;4.198;2023-04-06T09:59:10;2.72;;;2.53;;
74616;SDS011;63123;50.906;4.198;2023-04-06T10:01:44;3.25;;;2.97;;
74616;SDS011;63123;50.906;4.198;2023-04-06T10:04:18;4.45;;;4.05;;
74616;SDS011;63123;50.906;4.198;2023-04-06T10:06:52;3.75;;;2.78;;
74616;SDS011;63123;50.906;4.198;2023-04-06T10:09:18;3.35;;;2.88;;
74616;SDS011;63123;50.906;4.198;2023-04-06T10:11:50;2.70;;;2.50;;
74616;SDS011;63123;50.906;4.198;2023-04-06T10:14:16;2.75;;;2.53;;
74616;SDS011;63123;50.906;4.198;2023-04-06T10:16:42;3.13;;;2.83;;
74616;SDS011;63123;50.906;4.198;2023-04-06T10:19:18;2.50;;;2.30;;
74616;SDS011;63123;50.906;4.198;2023-04-06T10:21:50;3.58;;;3.28;;
74616;SDS011;63123;50.906;4.198;2023-04-06T10:24:19;2.60;;;2.40;;
74616;SDS011;63123;50.906;4.198;2023-04-06T10:26:58;2.90;;;2.60;;
74616;SDS011;63123;50.906;4.198;2023-04-06T10:29:26;3.13;;;2.70;;
74616;SDS011;63123;50.906;4.198;2023-04-06T10:31:52;3.35;;;3.00;;
74616;SDS011;63123;50.906;4.198;2023-04-06T10:34:20;3.22;;;3.03;;
74616;SDS011;63123;50.906;4.198;2023-04-06T10:36:45;2.58;;;2.38;;
74616;SDS011;63123;50.906;4.198;2023-04-06T10:39:11;3.60;;;3.22;;
74616;SDS011;63123;50.906;4.198;2023-04-06T10:41:44;3.05;;;2.83;;
74616;SDS011;63123;50.906;4.198;2023-04-06T10:44:22;2.97;;;2.78;;
74616;SDS011;63123;50.906;4.198;2023-04-06T10:46:52;2.95;;;2.75;;
74616;SDS011;63123;50.906;4.198;2023-04-06T10:49:19;3.53;;;3.22;;
74616;SDS011;63123;50.906;4.198;2023-04-06T10:51:50;3.10;;;2.80;;
74616;SDS011;63123;50.906;4.198;2023-04-06T10:54:18;3.30;;;3.00;;
74616;SDS011;63123;50.906;4.198;2023-04-06T10:56:45;2.88;;;2.67;;
74616;SDS011;63123;50.906;4.198;2023-04-06T10:59:11;3.30;;;3.00;;
74616;SDS011;63123;50.906;4.198;2023-04-06T11:01:37;3.10;;;2.80;;
74616;SDS011;63123;50.906;4.198;2023-04-06T11:04:02;2.78;;;2.58;;
74616;SDS011;63123;50.906;4.198;2023-04-06T11:06:29;3.05;;;2.75;;
74616;SDS011;63123;50.906;4.198;2023-04-06T11:08:56;3.40;;;3.10;;
74616;SDS011;63123;50.906;4.198;2023-04-06T11:11:23;3.30;;;3.00;;
74616;SDS011;63123;50.906;4.198;2023-04-06T11:13:58;3.20;;;2.90;;
74616;SDS011;63123;50.906;4.198;2023-04-06T11:16:25;3.22;;;2.92;;
74616;SDS011;63123;50.906;4.198;2023-04-06T11:18:55;3.25;;;2.95;;
74616;SDS011;63123;50.906;4.198;2023-04-06T11:21:35;3.60;;;3.30;;
74616;SDS011;63123;50.906;4.198;2023-04-06T11:24:16;3.15;;;2.88;;
74616;SDS011;63123;50.906;4.198;2023-04-06T11:26:50;3.10;;;2.80;;
74616;SDS011;63123;50.906;4.198;2023-04-06T11:29:19;3.38;;;3.08;;
74616;SDS011;63123;50.906;4.198;2023-04-06T11:32:00;2.63;;;2.30;;
74616;SDS011;63123;50.906;4.198;2023-04-06T11:34:28;3.45;;;2.83;;
74616;SDS011;63123;50.906;4.198;2023-04-06T11:36:56;3.40;;;3.10;;
74616;SDS011;63123;50.906;4.198;2023-04-06T11:39:23;3.25;;;2.95;;
74616;SDS011;63123;50.906;4.198;2023-04-06T11:41:51;3.78;;;3.47;;
74616;SDS011;63123;50.906;4.198;2023-04-06T11:44:39;3.53;;;3.20;;
74616;SDS011;63123;50.906;4.198;2023-04-06T11:47:10;3.20;;;2.90;;
74616;SDS011;63123;50.906;4.198;2023-04-06T11:49:37;3.80;;;3.50;;
74616;SDS011;63123;50.906;4.198;2023-04-06T11:52:13;3.38;;;3.10;;
74616;SDS011;63123;50.906;4.198;2023-04-06T11:54:41;3.65;;;3.35;;
74616;SDS011;63123;50.906;4.198;2023-04-06T11:57:08;3.13;;;2.78;;
74616;SDS011;63123;50.906;4.198;2023-04-06T11:59:34;3.17;;;2.88;;
74616;SDS011;63123;50.906;4.198;2023-04-06T12:02:03;3.60;;;3.30;;
74616;SDS011;63123;50.906;4.198;2023-04-06T12:04:29;3.20;;;2.90;;
74616;SDS011;63123;50.906;4.198;2023-04-06T12:06:56;4.10;;;3.00;;
74616;SDS011;63123;50.906;4.198;2023-04-06T12:09:22;4.63;;;4.18;;
74616;SDS011;63123;50.906;4.198;2023-04-06T12:11:47;3.40;;;3.15;;
74616;SDS011;63123;50.906;4.198;2023-04-06T12:14:13;3.25;;;2.95;;
74616;SDS011;63123;50.906;4.198;2023-04-06T12:16:39;3.50;;;3.22;;
74616;SDS011;63123;50.906;4.198;2023-04-06T12:19:05;3.60;;;3.30;;
74616;SDS011;63123;50.906;4.198;2023-04-06T12:21:31;3.47;;;3.17;;
74616;SDS011;63123;50.906;4.198;2023-04-06T12:24:02;4.00;;;3.40;;
74616;SDS011;63123;50.906;4.198;2023-04-06T12:26:28;3.30;;;3.00;;
74616;SDS011;63123;50.906;4.198;2023-04-06T12:28:55;3.53;;;3.13;;
74616;SDS011;63123;50.906;4.198;2023-04-06T12:31:21;3.97;;;3.63;;
74616;SDS011;63123;50.906;4.198;2023-04-06T12:33:48;3.65;;;2.72;;
74616;SDS011;63123;50.906;4.198;2023-04-06T12:36:15;3.53;;;3.22;;
74616;SDS011;63123;50.906;4.198;2023-04-06T12:38:49;4.20;;;3.90;;
74616;SDS011;63123;50.906;4.198;2023-04-06T12:41:18;3.75;;;3.45;;
74616;SDS011;63123;50.906;4.198;2023-04-06T12:43:44;3.50;;;3.17;;
74616;SDS011;63123;50.906;4.198;2023-04-06T12:46:11;3.20;;;3.00;;
74616;SDS011;63123;50.906;4.198;2023-04-06T12:48:37;3.47;;;3.17;;
74616;SDS011;63123;50.906;4.198;2023-04-06T12:51:03;3.60;;;3.30;;
74616;SDS011;63123;50.906;4.198;2023-04-06T12:53:30;3.67;;;3.38;;
74616;SDS011;63123;50.906;4.198;2023-04-06T12:55:57;2.65;;;2.45;;
74616;SDS011;63123;50.906;4.198;2023-04-06T12:58:23;3.03;;;2.83;;
74616;SDS011;63123;50.906;4.198;2023-04-06T13:00:51;3.67;;;3.38;;
74616;SDS011;63123;50.906;4.198;2023-04-06T13:03:20;3.45;;;3.15;;
74616;SDS011;63123;50.906;4.198;2023-04-06T13:05:47;3.47;;;3.17;;
74616;SDS011;63123;50.906;4.198;2023-04-06T13:08:14;3.00;;;2.80;;
74616;SDS011;63123;50.906;4.198;2023-04-06T13:10:44;4.07;;;3.53;;
74616;SDS011;63123;50.906;4.198;2023-04-06T13:13:12;4.22;;;3.83;;
74616;SDS011;63123;50.906;4.198;2023-04-06T13:15:37;2.97;;;2.70;;
74616;SDS011;63123;50.906;4.198;2023-04-06T13:18:03;3.15;;;2.85;;
74616;SDS011;63123;50.906;4.198;2023-04-06T13:20:29;3.00;;;2.80;;
74616;SDS011;63123;50.906;4.198;2023-04-06T13:22:55;3.80;;;3.47;;
74616;SDS011;63123;50.906;4.198;2023-04-06T13:25:21;3.13;;;2.83;;
74616;SDS011;63123;50.906;4.198;2023-04-06T13:27:46;3.03;;;2.80;;
74616;SDS011;63123;50.906;4.198;2023-04-06T13:30:13;3.70;;;3.40;;
74616;SDS011;63123;50.906;4.198;2023-04-06T13:32:39;4.18;;;3.88;;
74616;SDS011;63123;50.906;4.198;2023-04-06T13:35:05;4.00;;;3.70;;
74616;SDS011;63123;50.906;4.198;2023-04-06T13:37:32;2.85;;;2.58;;
74616;SDS011;63123;50.906;4.198;2023-04-06T13:39:58;3.67;;;3.35;;
74616;SDS011;63123;50.906;4.198;2023-04-06T13:42:23;3.97;;;3.67;;
74616;SDS011;63123;50.906;4.198;2023-04-06T13:44:49;3.75;;;3.45;;
74616;SDS011;63123;50.906;4.198;2023-04-06T13:47:16;4.20;;;3.90;;
74616;SDS011;63123;50.906;4.198;2023-04-06T13:49:42;3.70;;;3.33;;
74616;SDS011;63123;50.906;4.198;2023-04-06T13:52:08;3.75;;;3.45;;
74616;SDS011;63123;50.906;4.198;2023-04-06T13:54:35;3.80;;;3.50;;
74616;SDS011;63123;50.906;4.198;2023-04-06T13:57:01;3.97;;;3.67;;
74616;SDS011;63123;50.906;4.198;2023-04-06T13:59:33;3.90;;;3.60;;
74616;SDS011;63123;50.906;4.198;2023-04-06T14:02:00;4.00;;;3.70;;
74616;SDS011;63123;50.906;4.198;2023-04-06T14:04:29;3.95;;;3.65;;
74616;SDS011;63123;50.906;4.198;2023-04-06T14:06:55;3.50;;;3.20;;
74616;SDS011;63123;50.906;4.198;2023-04-06T14:09:21;3.53;;;3.22;;
74616;SDS011;63123;50.906;4.198;2023-04-06T14:11:47;4.03;;;3.63;;
74616;SDS011;63123;50.906;4.198;2023-04-06T14:14:13;3.60;;;3.30;;
74616;SDS011;63123;50.906;4.198;2023-04-06T14:16:39;3.78;;;3.45;;
74616;SDS011;63123;50.906;4.198;2023-04-06T14:19:08;3.50;;;3.20;;
74616;SDS011;63123;50.906;4.198;2023-04-06T14:21:35;4.35;;;3.95;;
74616;SDS011;63123;50.906;4.198;2023-04-06T14:24:01;4.35;;;3.95;;
74616;SDS011;63123;50.906;4.198;2023-04-06T14:26:27;4.07;;;3.78;;
74616;SDS011;63123;50.906;4.198;2023-04-06T14:28:52;3.88;;;3.58;;
74616;SDS011;63123;50.906;4.198;2023-04-06T14:31:18;4.60;;;4.20;;
74616;SDS011;63123;50.906;4.198;2023-04-06T14:33:44;4.13;;;3.83;;
74616;SDS011;63123;50.906;4.198;2023-04-06T14:36:10;3.97;;;3.67;;
74616;SDS011;63123;50.906;4.198;2023-04-06T14:38:36;3.38;;;3.15;;
74616;SDS011;63123;50.906;4.198;2023-04-06T14:41:02;3.40;;;3.10;;
74616;SDS011;63123;50.906;4.198;2023-04-06T14:43:27;3.90;;;3.60;;
74616;SDS011;63123;50.906;4.198;2023-04-06T14:45:53;4.38;;;4.07;;